createdAt,value
2022-12-17T00:01:32.315Z,11.82
2022-12-17T00:03:53.994Z,11.05
2022-12-17T00:06:25.951Z,10.45
2022-12-17T00:08:46.354Z,10.75
2022-12-17T00:11:06.773Z,10.13
2022-12-17T00:13:37.209Z,10.52
2022-12-17T00:15:58.146Z,10.93
2022-12-17T00:18:22.037Z,13.00
2022-12-17T00:20:43.887Z,11.07
2022-12-17T00:23:04.328Z,11.95
2022-12-17T00:25:28.287Z,12.07
2022-12-17T00:27:48.695Z,12.65
2022-12-17T00:30:08.948Z,12.57
2022-12-17T00:32:29.392Z,14.85
2022-12-17T00:34:49.427Z,14.70
2022-12-17T00:37:10.776Z,13.82
2022-12-17T00:39:31.215Z,12.65
2022-12-17T00:41:51.382Z,12.60
2022-12-17T00:44:11.532Z,11.25
2022-12-17T00:46:32.130Z,11.93
2022-12-17T00:48:52.591Z,12.52
2022-12-17T00:51:14.063Z,12.27
2022-12-17T00:53:36.434Z,12.13
2022-12-17T00:55:58.079Z,13.18
2022-12-17T00:58:18.240Z,13.68
2022-12-17T01:00:38.651Z,12.60
2022-12-17T01:02:59.257Z,12.75
2022-12-17T01:05:19.366Z,12.82
2022-12-17T01:07:39.592Z,11.82
2022-12-17T01:10:01.318Z,12.73
2022-12-17T01:12:21.917Z,12.10
2022-12-17T01:14:42.375Z,12.85
2022-12-17T01:17:02.661Z,12.50
2022-12-17T01:19:23.095Z,12.27
2022-12-17T01:21:43.413Z,14.48
2022-12-17T01:24:04.294Z,12.65
2022-12-17T01:26:26.232Z,14.68
2022-12-17T01:28:46.553Z,13.10
2022-12-17T01:31:06.608Z,14.65
2022-12-17T01:33:28.974Z,13.57
2022-12-17T01:35:49.021Z,12.38
2022-12-17T01:38:09.511Z,13.70
2022-12-17T01:40:30.107Z,11.45
2022-12-17T01:42:57.930Z,11.63
2022-12-17T01:45:18.258Z,11.38
2022-12-17T01:47:38.881Z,11.85
2022-12-17T01:50:04.712Z,13.15
2022-12-17T01:52:25.355Z,12.65
2022-12-17T01:54:45.499Z,13.50
2022-12-17T01:57:06.373Z,12.70
2022-12-17T01:59:28.784Z,13.10
2022-12-17T02:01:49.309Z,13.48
2022-12-17T02:04:09.572Z,13.20
2022-12-17T02:06:34.449Z,13.35
2022-12-17T02:09:02.119Z,13.32
2022-12-17T02:11:25.966Z,12.65
2022-12-17T02:13:51.368Z,12.82
2022-12-17T02:16:17.261Z,13.52
2022-12-17T02:18:43.746Z,13.25
2022-12-17T02:21:07.191Z,13.40
2022-12-17T02:23:37.016Z,14.85
2022-12-17T02:26:08.305Z,15.10
2022-12-17T02:28:30.525Z,14.43
2022-12-17T02:30:50.784Z,15.27
2022-12-17T02:33:12.560Z,13.40
2022-12-17T02:35:35.365Z,14.43
2022-12-17T02:37:55.736Z,12.43
2022-12-17T02:40:16.643Z,12.88
2022-12-17T02:42:38.146Z,13.50
2022-12-17T02:45:01.440Z,11.98
2022-12-17T02:47:27.682Z,11.68
2022-12-17T02:49:47.920Z,13.57
2022-12-17T02:52:08.804Z,12.52
2022-12-17T02:54:29.306Z,12.80
2022-12-17T02:56:49.723Z,13.77
2022-12-17T02:59:10.090Z,11.43
2022-12-17T03:01:31.997Z,12.50
2022-12-17T03:03:52.466Z,12.18
2022-12-17T03:06:12.980Z,11.80
2022-12-17T03:08:33.533Z,12.40
2022-12-17T03:10:54.003Z,12.00
2022-12-17T03:13:14.599Z,12.98
2022-12-17T03:15:34.972Z,11.80
2022-12-17T03:18:05.159Z,11.57
2022-12-17T03:20:26.699Z,12.20
2022-12-17T03:22:47.509Z,14.57
2022-12-17T03:25:08.050Z,13.27
2022-12-17T03:27:30.760Z,12.68
2022-12-17T03:29:51.165Z,12.60
2022-12-17T03:32:11.325Z,11.77
2022-12-17T03:34:33.350Z,13.70
2022-12-17T03:37:08.002Z,13.35
2022-12-17T03:39:28.599Z,14.90
2022-12-17T03:41:48.622Z,14.05
2022-12-17T03:44:17.302Z,16.27
2022-12-17T03:46:37.805Z,15.73
2022-12-17T03:48:58.310Z,15.23
2022-12-17T03:51:25.893Z,15.80
2022-12-17T03:53:45.983Z,16.15
2022-12-17T03:56:06.297Z,15.55
2022-12-17T03:58:26.800Z,15.63
2022-12-17T04:00:47.240Z,14.68
2022-12-17T04:03:07.637Z,18.25
2022-12-17T04:05:28.183Z,17.95
2022-12-17T04:07:50.132Z,18.48
2022-12-17T04:10:10.298Z,15.70
2022-12-17T04:12:45.232Z,17.35
2022-12-17T04:15:05.583Z,16.13
2022-12-17T04:17:27.285Z,14.85
2022-12-17T04:19:47.618Z,16.67
2022-12-17T04:22:09.703Z,14.60
2022-12-17T04:24:31.221Z,14.27
2022-12-17T04:26:51.259Z,16.90
2022-12-17T04:29:13.636Z,17.45
2022-12-17T04:31:34.201Z,14.70
2022-12-17T04:33:54.815Z,15.98
2022-12-17T04:36:16.184Z,16.42
2022-12-17T04:38:36.298Z,15.05
2022-12-17T04:40:57.941Z,16.92
2022-12-17T04:43:24.839Z,14.73
2022-12-17T04:45:46.250Z,16.92
2022-12-17T04:48:06.566Z,15.63
2022-12-17T04:50:27.121Z,15.93
2022-12-17T04:52:52.826Z,14.68
2022-12-17T04:55:12.807Z,14.20
2022-12-17T04:57:34.507Z,14.70
2022-12-17T04:59:55.258Z,14.80
2022-12-17T05:02:15.644Z,14.35
2022-12-17T05:04:35.875Z,15.73
2022-12-17T05:06:56.056Z,15.45
2022-12-17T05:09:16.380Z,15.93
2022-12-17T05:11:36.443Z,14.20
2022-12-17T05:13:57.845Z,16.35
2022-12-17T05:16:18.337Z,14.07
2022-12-17T05:18:38.850Z,14.98
2022-12-17T05:20:59.101Z,15.70
2022-12-17T05:23:23.876Z,15.10
2022-12-17T05:25:44.019Z,16.55
2022-12-17T05:28:04.712Z,14.23
2022-12-17T05:30:27.462Z,17.98
2022-12-17T05:32:47.934Z,16.85
2022-12-17T05:35:08.109Z,19.05
2022-12-17T05:37:30.772Z,18.65
2022-12-17T05:39:51.179Z,17.27
2022-12-17T05:42:11.685Z,18.55
2022-12-17T05:44:32.207Z,14.20
2022-12-17T05:46:54.013Z,21.92
2022-12-17T05:49:14.388Z,19.90
2022-12-17T05:51:38.595Z,18.67
2022-12-17T05:53:59.595Z,17.30
2022-12-17T05:56:19.031Z,18.67
2022-12-17T05:58:39.526Z,17.65
2022-12-17T06:01:00.081Z,17.92
2022-12-17T06:03:23.149Z,19.05
2022-12-17T06:05:43.442Z,22.08
2022-12-17T06:08:03.824Z,12.73
2022-12-17T06:10:24.843Z,15.43
2022-12-17T06:12:45.514Z,17.55
2022-12-17T06:15:06.127Z,15.27
2022-12-17T06:17:26.561Z,14.85
2022-12-17T06:19:48.445Z,15.82
2022-12-17T06:22:21.553Z,15.35
2022-12-17T06:24:45.933Z,17.27
2022-12-17T06:27:08.850Z,13.93
2022-12-17T06:29:29.279Z,14.85
2022-12-17T06:31:49.760Z,14.52
2022-12-17T06:34:09.894Z,19.95
2022-12-17T06:36:31.687Z,12.30
2022-12-17T06:38:52.053Z,15.45
2022-12-17T06:41:12.600Z,10.02
2022-12-17T06:43:33.228Z,16.20
2022-12-17T06:45:53.541Z,14.38
2022-12-17T06:48:20.354Z,12.95
2022-12-17T06:50:43.031Z,14.70
2022-12-17T06:53:04.819Z,11.88
2022-12-17T06:55:25.517Z,14.40
2022-12-17T06:57:50.191Z,8.68
2022-12-17T07:00:10.840Z,14.27
2022-12-17T07:02:31.436Z,13.30
2022-12-17T07:04:52.037Z,14.70
2022-12-17T07:07:12.426Z,8.65
2022-12-17T07:09:34.133Z,16.25
2022-12-17T07:11:54.486Z,12.85
2022-12-17T07:14:15.158Z,18.02
2022-12-17T07:16:35.732Z,15.15
2022-12-17T07:18:56.412Z,14.55
2022-12-17T07:21:16.882Z,12.98
2022-12-17T07:23:37.509Z,14.85
2022-12-17T07:26:00.020Z,12.40
2022-12-17T07:28:20.181Z,10.35
2022-12-17T07:30:40.661Z,14.55
2022-12-17T07:33:00.745Z,14.07
2022-12-17T07:35:32.677Z,14.05
2022-12-17T07:37:52.749Z,15.27
2022-12-17T07:40:13.120Z,16.17
2022-12-17T07:42:34.592Z,9.10
2022-12-17T07:44:55.139Z,11.55
2022-12-17T07:47:15.395Z,14.57
2022-12-17T07:49:35.847Z,17.35
2022-12-17T07:51:56.477Z,25.05
2022-12-17T07:54:16.915Z,15.38
2022-12-17T07:56:34.000Z,10.80
2022-12-17T07:58:55.536Z,10.07
2022-12-17T08:01:18.171Z,18.60
2022-12-17T08:03:38.867Z,18.70
2022-12-17T08:05:59.369Z,12.98
2022-12-17T08:08:26.364Z,14.32
2022-12-17T08:10:46.550Z,16.50
2022-12-17T08:13:14.421Z,13.15
2022-12-17T08:15:36.180Z,10.63
2022-12-17T08:17:56.654Z,14.98
2022-12-17T08:20:16.958Z,16.23
2022-12-17T08:22:37.512Z,22.25
2022-12-17T08:24:57.646Z,14.07
2022-12-17T08:27:18.262Z,16.00
2022-12-17T08:29:38.819Z,13.27
2022-12-17T08:32:00.463Z,15.63
2022-12-17T08:34:20.799Z,18.20
2022-12-17T08:36:41.340Z,17.58
2022-12-17T08:39:01.735Z,21.05
2022-12-17T08:41:22.676Z,15.80
2022-12-17T08:43:43.174Z,17.13
2022-12-17T08:46:06.097Z,15.20
2022-12-17T08:48:28.107Z,16.48
2022-12-17T08:50:59.921Z,10.52
2022-12-17T08:53:22.294Z,14.70
2022-12-17T08:55:42.769Z,16.30
2022-12-17T08:58:11.538Z,17.30
2022-12-17T09:00:32.787Z,18.95
2022-12-17T09:02:49.435Z,17.10
2022-12-17T09:05:11.312Z,15.35
2022-12-17T09:07:31.608Z,20.05
2022-12-17T09:09:52.011Z,16.80
2022-12-17T09:12:12.364Z,14.98
2022-12-17T09:14:32.772Z,13.75
2022-12-17T09:16:53.407Z,16.25
2022-12-17T09:19:13.967Z,17.48
2022-12-17T09:21:35.610Z,17.58
2022-12-17T09:23:56.079Z,16.98
2022-12-17T09:26:16.527Z,15.90
2022-12-17T09:28:36.908Z,14.23
2022-12-17T09:30:57.090Z,17.42
2022-12-17T09:33:17.236Z,13.77
2022-12-17T09:35:37.769Z,17.70
2022-12-17T09:37:59.539Z,17.80
2022-12-17T09:40:19.955Z,17.77
2022-12-17T09:42:49.945Z,11.80
2022-12-17T09:47:48.525Z,17.95
2022-12-17T09:50:09.056Z,12.45
2022-12-17T09:52:39.009Z,16.30
2022-12-17T09:55:04.483Z,15.60
2022-12-17T09:57:29.414Z,14.32
2022-12-17T09:59:53.323Z,14.65
2022-12-17T10:02:10.316Z,14.50
2022-12-17T10:04:35.407Z,17.30
2022-12-17T10:06:55.676Z,18.30
2022-12-17T10:09:19.400Z,16.10
2022-12-17T10:11:43.066Z,14.70
2022-12-17T10:14:03.586Z,19.35
2022-12-17T10:16:38.655Z,13.68
2022-12-17T10:18:59.208Z,12.73
2022-12-17T10:21:21.583Z,14.23
2022-12-17T10:23:43.699Z,9.32
2022-12-17T10:26:10.230Z,14.52
2022-12-17T10:28:33.337Z,12.65
2022-12-17T10:30:54.835Z,12.10
2022-12-17T10:33:14.990Z,15.38
2022-12-17T10:35:38.611Z,13.48
2022-12-17T10:37:59.606Z,16.52
2022-12-17T10:40:21.440Z,12.63
2022-12-17T10:42:44.475Z,14.13
2022-12-17T10:45:06.241Z,13.82
2022-12-17T10:47:30.088Z,13.65
2022-12-17T10:49:50.809Z,10.73
2022-12-17T10:52:17.133Z,11.50
2022-12-17T10:54:48.727Z,13.38
2022-12-17T10:57:12.695Z,13.60
2022-12-17T10:59:46.990Z,12.90
2022-12-17T11:02:16.642Z,14.73
2022-12-17T11:04:43.173Z,16.88
2022-12-17T11:07:06.072Z,15.15
2022-12-17T11:09:35.491Z,15.25
2022-12-17T11:11:56.428Z,15.93
2022-12-17T11:14:22.480Z,14.77
2022-12-17T11:16:45.786Z,14.23
2022-12-17T11:19:14.155Z,15.38
2022-12-17T11:21:39.593Z,13.18
2022-12-17T11:24:03.231Z,12.32
2022-12-17T11:26:28.762Z,16.13
2022-12-17T11:28:53.347Z,15.50
2022-12-17T11:31:24.627Z,15.63
2022-12-17T11:33:51.108Z,16.00
2022-12-17T11:36:23.013Z,13.45
2022-12-17T11:38:57.381Z,15.32
2022-12-17T11:41:25.857Z,13.88
2022-12-17T11:43:53.038Z,14.57
2022-12-17T11:46:21.751Z,14.43
2022-12-17T11:48:52.523Z,17.02
2022-12-17T11:51:21.292Z,14.82
2022-12-17T11:53:59.925Z,15.50
2022-12-17T11:56:30.892Z,19.58
2022-12-17T12:01:25.094Z,10.88
2022-12-17T12:03:55.147Z,16.73
2022-12-17T12:06:18.764Z,15.45
2022-12-17T12:08:43.335Z,15.57
2022-12-17T12:11:15.001Z,16.00
2022-12-17T12:13:45.814Z,11.00
2022-12-17T12:16:18.745Z,15.23
2022-12-17T12:18:49.383Z,14.80
2022-12-17T12:21:27.563Z,17.02
2022-12-17T12:24:01.672Z,16.00
2022-12-17T12:26:30.020Z,18.73
2022-12-17T12:28:55.794Z,15.52
2022-12-17T12:31:26.867Z,15.15
2022-12-17T12:33:59.256Z,11.63
2022-12-17T12:36:23.971Z,16.98
2022-12-17T12:38:50.224Z,17.48
2022-12-17T12:41:18.375Z,18.00
2022-12-17T12:43:41.536Z,14.73
2022-12-17T12:46:09.610Z,14.45
2022-12-17T12:48:43.975Z,16.83
2022-12-17T12:51:09.341Z,22.10
2022-12-17T12:53:31.748Z,20.70
2022-12-17T12:55:57.334Z,19.17
2022-12-17T12:58:19.342Z,22.05
2022-12-17T13:00:42.568Z,18.50
2022-12-17T13:03:03.588Z,17.08
2022-12-17T13:05:35.903Z,14.70
2022-12-17T13:07:38.603Z,17.13
2022-12-17T13:09:50.343Z,18.17
2022-12-17T13:11:57.952Z,18.73
2022-12-17T13:14:07.223Z,17.73
2022-12-17T13:16:31.142Z,19.75
2022-12-17T13:18:36.263Z,18.10
2022-12-17T13:20:39.193Z,18.67
2022-12-17T13:22:51.384Z,17.20
2022-12-17T13:24:57.802Z,18.55
2022-12-17T13:27:03.842Z,17.58
2022-12-17T13:29:22.632Z,17.10
2022-12-17T13:31:28.128Z,17.67
2022-12-17T13:33:41.337Z,15.77
2022-12-17T13:35:55.424Z,17.70
2022-12-17T13:38:05.909Z,20.35
2022-12-17T13:40:26.603Z,18.50
2022-12-17T13:42:31.562Z,20.05
2022-12-17T13:44:41.415Z,20.48
2022-12-17T13:46:47.691Z,17.55
2022-12-17T13:48:56.388Z,11.52
2022-12-17T13:51:01.955Z,19.27
2022-12-17T13:53:11.589Z,16.52
2022-12-17T13:55:21.141Z,19.65
2022-12-17T13:57:25.821Z,17.40
2022-12-17T13:59:29.877Z,15.43
2022-12-17T14:01:33.434Z,19.38
2022-12-17T14:04:04.237Z,19.08
2022-12-17T14:05:59.970Z,24.17
2022-12-17T14:08:05.320Z,23.13
2022-12-17T14:10:17.504Z,24.00
2022-12-17T14:12:23.967Z,16.40
2022-12-17T14:14:32.488Z,21.63
2022-12-17T14:16:35.401Z,19.85
2022-12-17T14:18:41.694Z,18.33
2022-12-17T14:20:44.879Z,18.25
2022-12-17T14:22:51.825Z,18.08
2022-12-17T14:27:01.039Z,16.67
2022-12-17T14:29:14.041Z,24.35
2022-12-17T14:31:29.186Z,21.42
2022-12-17T14:33:33.572Z,19.55
2022-12-17T14:35:40.794Z,23.40
2022-12-17T14:37:47.964Z,21.02
2022-12-17T14:42:24.105Z,18.80
2022-12-17T14:44:30.532Z,20.05
2022-12-17T14:46:35.916Z,19.50
2022-12-17T14:48:56.327Z,23.55
2022-12-17T14:50:59.349Z,16.83
2022-12-17T14:53:07.057Z,17.95
2022-12-17T14:55:30.420Z,18.73
2022-12-17T14:57:33.471Z,25.02
2022-12-17T14:59:39.388Z,22.48
2022-12-17T15:01:43.802Z,20.10
2022-12-17T15:03:47.453Z,22.05
2022-12-17T15:05:53.691Z,21.08
2022-12-17T15:07:57.071Z,28.00
2022-12-17T15:10:10.053Z,24.38
2022-12-17T15:12:12.886Z,20.17
2022-12-17T15:14:16.010Z,20.58
2022-12-17T15:16:21.368Z,22.77
2022-12-17T15:18:24.215Z,20.75
2022-12-17T15:20:27.034Z,16.95
2022-12-17T15:22:29.779Z,21.98
2022-12-17T15:24:32.603Z,21.45
2022-12-17T15:26:35.389Z,17.63
2022-12-17T15:28:38.510Z,27.48
2022-12-17T15:30:41.696Z,21.77
2022-12-17T15:32:46.393Z,24.52
2022-12-17T15:34:50.416Z,25.95
2022-12-17T15:36:53.280Z,26.08
2022-12-17T15:38:56.367Z,25.45
2022-12-17T15:41:01.295Z,23.33
2022-12-17T15:43:11.831Z,25.77
2022-12-17T15:45:14.670Z,24.88
2022-12-17T15:47:17.423Z,23.98
2022-12-17T15:49:21.934Z,22.85
2022-12-17T15:51:24.731Z,24.73
2022-12-17T15:53:27.652Z,22.83
2022-12-17T15:55:31.005Z,25.48
2022-12-17T15:57:33.897Z,23.33
2022-12-17T15:59:38.344Z,25.40
2022-12-17T16:01:41.313Z,19.08
2022-12-17T16:03:44.450Z,25.42
2022-12-17T16:05:48.899Z,23.17
2022-12-17T16:07:52.355Z,23.15
2022-12-17T16:09:57.930Z,24.02
2022-12-17T16:12:03.130Z,22.80
2022-12-17T16:14:06.056Z,22.45
2022-12-17T16:16:10.136Z,24.25
2022-12-17T16:18:13.202Z,24.27
2022-12-17T16:20:15.951Z,25.15
2022-12-17T16:22:20.083Z,22.60
2022-12-17T16:24:22.984Z,21.42
2022-12-17T16:26:25.805Z,24.08
2022-12-17T16:28:29.894Z,21.58
2022-12-17T16:30:32.628Z,22.38
2022-12-17T16:32:36.761Z,23.13
2022-12-17T16:34:39.823Z,20.58
2022-12-17T16:36:43.158Z,20.10
2022-12-17T16:38:49.546Z,22.35
2022-12-17T16:40:56.333Z,21.38
2022-12-17T16:42:59.002Z,21.88
2022-12-17T16:45:01.824Z,24.45
2022-12-17T16:47:04.917Z,20.77
2022-12-17T16:49:09.668Z,21.75
2022-12-17T16:51:21.067Z,22.63
2022-12-17T16:53:26.847Z,23.58
2022-12-17T16:55:30.986Z,25.38
2022-12-17T16:57:33.705Z,24.30
2022-12-17T16:59:36.450Z,17.48
2022-12-17T17:01:40.875Z,16.25
2022-12-17T17:03:43.965Z,28.13
2022-12-17T17:05:46.680Z,22.80
2022-12-17T17:07:49.400Z,25.48
2022-12-17T17:09:52.224Z,28.08
2022-12-17T17:11:58.617Z,28.52
2022-12-17T17:14:01.783Z,29.58
2022-12-17T17:16:05.413Z,31.45
2022-12-17T17:18:08.227Z,35.10
2022-12-17T17:20:12.334Z,21.73
2022-12-17T17:22:15.067Z,24.50
2022-12-17T17:24:22.087Z,29.30
2022-12-17T17:26:26.213Z,23.98
2022-12-17T17:28:30.334Z,30.00
2022-12-17T17:30:33.153Z,31.48
2022-12-17T17:32:36.020Z,30.42
2022-12-17T17:34:39.076Z,28.83
2022-12-17T17:36:42.727Z,25.13
2022-12-17T17:38:46.216Z,27.90
2022-12-17T17:40:49.030Z,28.75
2022-12-17T17:42:53.033Z,25.42
2022-12-17T17:44:57.404Z,24.75
2022-12-17T17:47:00.566Z,23.75
2022-12-17T17:49:05.132Z,29.65
2022-12-17T17:51:10.618Z,32.38
2022-12-17T17:53:13.262Z,24.58
2022-12-17T17:55:16.332Z,26.45
2022-12-17T17:57:19.030Z,28.77
2022-12-17T17:59:27.772Z,25.23
2022-12-17T18:01:39.276Z,25.70
2022-12-17T18:03:42.678Z,25.20
2022-12-17T18:05:45.312Z,25.85
2022-12-17T18:07:48.011Z,27.75
2022-12-17T18:09:50.689Z,23.35
2022-12-17T18:11:53.398Z,26.88
2022-12-17T18:13:56.061Z,23.00
2022-12-17T18:16:01.754Z,23.15
2022-12-17T18:18:12.644Z,27.75
2022-12-17T18:20:17.381Z,26.15
2022-12-17T18:22:20.063Z,24.90
2022-12-17T18:24:24.214Z,23.65
2022-12-17T18:26:28.376Z,21.65
2022-12-17T18:28:31.036Z,21.27
2022-12-17T18:30:33.724Z,25.15
2022-12-17T18:32:36.654Z,26.73
2022-12-17T18:34:40.828Z,25.48
2022-12-17T18:36:45.112Z,23.85
2022-12-17T18:38:48.347Z,21.88
2022-12-17T18:40:51.036Z,27.08
2022-12-17T18:43:25.948Z,25.73
2022-12-17T18:45:28.600Z,24.83
2022-12-17T18:47:31.328Z,27.40
2022-12-17T18:49:33.986Z,25.20
2022-12-17T18:51:39.744Z,23.27
2022-12-17T18:53:42.375Z,24.90
2022-12-17T18:55:45.083Z,22.77
2022-12-17T18:57:47.775Z,21.40
2022-12-17T18:59:50.422Z,22.40
2022-12-17T19:01:54.464Z,25.88
2022-12-17T19:03:58.121Z,21.60
2022-12-17T19:06:05.683Z,24.70
2022-12-17T19:08:09.644Z,22.23
2022-12-17T19:10:12.343Z,24.52
2022-12-17T19:12:15.097Z,22.67
2022-12-17T19:14:18.186Z,27.40
2022-12-17T19:16:22.761Z,20.65
2022-12-17T19:18:25.482Z,22.70
2022-12-17T19:20:28.271Z,23.75
2022-12-17T19:22:31.007Z,22.23
2022-12-17T19:24:35.012Z,20.50
2022-12-17T19:26:37.692Z,24.52
2022-12-17T19:28:41.831Z,18.83
2022-12-17T19:30:44.575Z,25.50
2022-12-17T19:32:47.299Z,18.08
2022-12-17T19:34:49.968Z,24.92
2022-12-17T19:36:52.941Z,22.15
2022-12-17T19:38:57.017Z,23.45
2022-12-17T19:41:05.561Z,19.65
2022-12-17T19:43:08.175Z,21.85
2022-12-17T19:45:11.484Z,25.13
2022-12-17T19:47:14.099Z,20.70
2022-12-17T19:49:17.767Z,25.08
2022-12-17T19:51:23.494Z,21.05
2022-12-17T19:53:27.286Z,22.92
2022-12-17T19:55:29.934Z,26.00
2022-12-17T19:57:35.166Z,23.73
2022-12-17T19:59:37.861Z,29.08
2022-12-17T20:01:42.654Z,21.38
2022-12-17T20:03:46.651Z,12.95
2022-12-17T20:05:49.643Z,23.73
2022-12-17T20:07:52.335Z,27.75
2022-12-17T20:09:55.100Z,25.83
2022-12-17T20:11:57.761Z,26.10
2022-12-17T20:14:03.653Z,26.50
2022-12-17T20:16:07.149Z,26.65
2022-12-17T20:18:09.805Z,27.05
2022-12-17T20:20:13.097Z,29.10
2022-12-17T20:22:15.843Z,22.15
2022-12-17T20:24:19.132Z,21.13
2022-12-17T20:26:22.397Z,15.07
2022-12-17T20:28:25.107Z,30.75
2022-12-17T20:30:29.094Z,23.92
2022-12-17T20:32:34.772Z,18.90
2022-12-17T20:34:37.381Z,22.67
2022-12-17T20:36:40.593Z,19.73
2022-12-17T20:38:45.097Z,18.98
2022-12-17T20:40:47.727Z,24.35
2022-12-17T20:42:53.107Z,24.95
2022-12-17T20:44:55.721Z,21.45
2022-12-17T20:47:01.233Z,26.38
2022-12-17T20:49:05.342Z,24.38
2022-12-17T20:51:09.659Z,23.67
2022-12-17T20:53:12.398Z,23.60
2022-12-17T20:55:15.160Z,19.92
2022-12-17T20:57:17.853Z,25.48
2022-12-17T20:59:20.724Z,23.35
2022-12-17T21:01:25.472Z,21.10
2022-12-17T21:03:29.707Z,20.13
2022-12-17T21:05:35.567Z,22.52
2022-12-17T21:07:38.313Z,20.23
2022-12-17T21:09:41.024Z,23.02
2022-12-17T21:11:43.847Z,23.50
2022-12-17T21:13:46.679Z,24.17
2022-12-17T21:15:50.635Z,21.13
2022-12-17T21:17:53.380Z,31.90
2022-12-17T21:20:01.499Z,25.15
2022-12-17T21:22:08.643Z,21.55
2022-12-17T21:24:13.233Z,21.75
2022-12-17T21:26:18.939Z,22.67
2022-12-17T21:28:24.551Z,20.23
2022-12-17T21:30:27.319Z,22.45
2022-12-17T21:32:33.661Z,24.02
2022-12-17T21:34:36.719Z,20.45
2022-12-17T21:36:42.148Z,20.83
2022-12-17T21:38:45.497Z,22.25
2022-12-17T21:40:48.272Z,20.50
2022-12-17T21:43:02.888Z,19.05
2022-12-17T21:45:06.275Z,23.35
2022-12-17T21:47:09.427Z,22.65
2022-12-17T21:49:12.446Z,20.55
2022-12-17T21:51:15.718Z,19.90
2022-12-17T21:53:20.149Z,19.38
2022-12-17T21:55:23.171Z,21.63
2022-12-17T21:57:25.807Z,18.65
2022-12-17T21:59:28.554Z,21.60
2022-12-17T22:01:33.304Z,20.42
2022-12-17T22:03:36.076Z,18.17
2022-12-17T22:05:39.307Z,22.73
2022-12-17T22:07:46.328Z,22.05
2022-12-17T22:10:08.533Z,18.63
2022-12-17T22:12:28.843Z,21.08
2022-12-17T22:14:31.618Z,20.77
2022-12-17T22:16:36.503Z,21.13
2022-12-17T22:18:40.199Z,20.90
2022-12-17T22:20:43.110Z,21.23
2022-12-17T22:22:46.170Z,19.70
2022-12-17T22:24:48.994Z,22.58
2022-12-17T22:26:59.580Z,21.58
2022-12-17T22:29:03.126Z,20.80
2022-12-17T22:31:24.155Z,18.88
2022-12-17T22:34:05.423Z,19.35
2022-12-17T22:37:24.165Z,22.10
2022-12-17T22:42:16.780Z,20.33
2022-12-17T22:44:36.460Z,19.98
2022-12-17T22:44:38.629Z,20.23
2022-12-17T22:45:43.647Z,16.75
2022-12-17T22:47:46.401Z,20.85
2022-12-17T22:49:49.138Z,16.77
2022-12-17T22:51:51.924Z,21.45
2022-12-17T22:53:55.265Z,19.92
2022-12-17T22:56:13.383Z,19.33
2022-12-17T22:58:22.705Z,20.50
2022-12-17T23:00:27.689Z,19.10
2022-12-17T23:02:30.494Z,19.80
2022-12-17T23:04:33.216Z,19.77
2022-12-17T23:06:35.879Z,20.25
2022-12-17T23:08:38.980Z,20.83
2022-12-17T23:10:41.713Z,19.10
2022-12-17T23:12:54.321Z,19.67
2022-12-17T23:14:58.373Z,20.02
2022-12-17T23:17:01.036Z,17.95
2022-12-17T23:19:04.879Z,20.27
2022-12-17T23:21:08.829Z,23.30
2022-12-17T23:23:11.560Z,20.08
2022-12-17T23:25:15.542Z,20.17
2022-12-17T23:27:18.269Z,19.92
2022-12-17T23:29:20.988Z,23.00
2022-12-17T23:31:27.189Z,22.98
2022-12-17T23:33:29.919Z,21.30
2022-12-17T23:35:32.831Z,20.80
2022-12-17T23:37:39.837Z,20.80
2022-12-17T23:39:42.866Z,19.25
2022-12-17T23:41:45.597Z,19.23
2022-12-17T23:43:49.042Z,20.52
2022-12-17T23:45:51.665Z,20.20
2022-12-17T23:47:57.554Z,23.58
2022-12-17T23:50:00.224Z,24.10
2022-12-17T23:52:03.004Z,19.23
2022-12-17T23:54:05.950Z,17.42
2022-12-17T23:56:11.588Z,15.95
2022-12-17T23:58:14.502Z,23.95
